sensor_id;sensor_type;location;lat;lon;timestamp;P1;durP1;ratioP1;P2;durP2;ratioP2
40527;SDS011;26230;51.268;6.534;2024-02-14T00:10:00;7.1;;;6.4;;
40527;SDS011;26230;51.268;6.534;2024-02-14T00:20:03;7.1;;;6.4;;
40527;SDS011;26230;51.268;6.534;2024-02-14T00:30:01;6.8;;;6.2;;
40527;SDS011;26230;51.268;6.534;2024-02-14T00:40:00;6.6;;;6.1;;
40527;SDS011;26230;51.268;6.534;2024-02-14T00:50:01;6.6;;;6.1;;
40527;SDS011;26230;51.268;6.534;2024-02-14T01:00:03;5.7;;;5.3;;
40527;SDS011;26230;51.268;6.534;2024-02-14T01:10:01;6.2;;;5.5;;
40527;SDS011;26230;51.268;6.534;2024-02-14T01:20:00;6.2;;;5.5;;
40527;SDS011;26230;51.268;6.534;2024-02-14T01:30:05;8.7;;;5.7;;
40527;SDS011;26230;51.268;6.534;2024-02-14T01:40:00;6.2;;;5.7;;
40527;SDS011;26230;51.268;6.534;2024-02-14T01:50:00;6.2;;;5.7;;
40527;SDS011;26230;51.268;6.534;2024-02-14T02:00:08;5.8;;;5.4;;
40527;SDS011;26230;51.268;6.534;2024-02-14T02:10:04;6.4;;;5.9;;
40527;SDS011;26230;51.268;6.534;2024-02-14T02:20:05;6.4;;;5.9;;
40527;SDS011;26230;51.268;6.534;2024-02-14T02:30:01;6.8;;;6.3;;
40527;SDS011;26230;51.268;6.534;2024-02-14T02:40:00;7.0;;;6.3;;
40527;SDS011;26230;51.268;6.534;2024-02-14T02:50:02;7.0;;;6.3;;
40527;SDS011;26230;51.268;6.534;2024-02-14T03:00:00;7.7;;;7.1;;
40527;SDS011;26230;51.268;6.534;2024-02-14T03:10:00;7.7;;;7.2;;
40527;SDS011;26230;51.268;6.534;2024-02-14T03:20:07;7.7;;;7.2;;
40527;SDS011;26230;51.268;6.534;2024-02-14T03:30:02;7.7;;;7.2;;
40527;SDS011;26230;51.268;6.534;2024-02-14T03:40:00;8.6;;;7.7;;
40527;SDS011;26230;51.268;6.534;2024-02-14T03:50:02;8.6;;;7.7;;
40527;SDS011;26230;51.268;6.534;2024-02-14T04:00:02;9.4;;;8.5;;
40527;SDS011;26230;51.268;6.534;2024-02-14T04:10:00;11.1;;;10.2;;
40527;SDS011;26230;51.268;6.534;2024-02-14T04:20:00;11.1;;;10.2;;
40527;SDS011;26230;51.268;6.534;2024-02-14T04:30:01;10.0;;;9.1;;
40527;SDS011;26230;51.268;6.534;2024-02-14T04:40:00;10.0;;;9.2;;
40527;SDS011;26230;51.268;6.534;2024-02-14T04:50:00;10.0;;;9.2;;
40527;SDS011;26230;51.268;6.534;2024-02-14T05:00:04;9.7;;;9.0;;
40527;SDS011;26230;51.268;6.534;2024-02-14T05:10:00;12.3;;;11.3;;
40527;SDS011;26230;51.268;6.534;2024-02-14T05:20:01;12.3;;;11.3;;
40527;SDS011;26230;51.268;6.534;2024-02-14T05:30:02;13.3;;;12.3;;
40527;SDS011;26230;51.268;6.534;2024-02-14T05:40:00;15.3;;;14.1;;
40527;SDS011;26230;51.268;6.534;2024-02-14T05:50:00;15.3;;;14.1;;
40527;SDS011;26230;51.268;6.534;2024-02-14T06:00:00;19.5;;;18.2;;
40527;SDS011;26230;51.268;6.534;2024-02-14T06:10:00;3.3;;;2.5;;
40527;SDS011;26230;51.268;6.534;2024-02-14T06:20:05;3.3;;;2.5;;
40527;SDS011;26230;51.268;6.534;2024-02-14T06:30:00;4.5;;;3.0;;
40527;SDS011;26230;51.268;6.534;2024-02-14T06:40:00;7.4;;;5.4;;
40527;SDS011;26230;51.268;6.534;2024-02-14T06:50:00;7.4;;;5.4;;
40527;SDS011;26230;51.268;6.534;2024-02-14T07:00:00;5.0;;;4.5;;
40527;SDS011;26230;51.268;6.534;2024-02-14T07:10:01;5.5;;;4.2;;
40527;SDS011;26230;51.268;6.534;2024-02-14T07:20:01;5.5;;;4.2;;
40527;SDS011;26230;51.268;6.534;2024-02-14T07:30:01;5.2;;;4.0;;
40527;SDS011;26230;51.268;6.534;2024-02-14T07:40:00;8.8;;;8.1;;
40527;SDS011;26230;51.268;6.534;2024-02-14T07:50:02;8.8;;;8.1;;
40527;SDS011;26230;51.268;6.534;2024-02-14T08:00:00;3.0;;;2.0;;
40527;SDS011;26230;51.268;6.534;2024-02-14T08:10:00;4.8;;;2.4;;
40527;SDS011;26230;51.268;6.534;2024-02-14T08:20:04;4.8;;;2.4;;
40527;SDS011;26230;51.268;6.534;2024-02-14T08:30:01;5.5;;;4.0;;
40527;SDS011;26230;51.268;6.534;2024-02-14T08:40:00;6.6;;;6.0;;
40527;SDS011;26230;51.268;6.534;2024-02-14T08:50:00;6.6;;;6.0;;
40527;SDS011;26230;51.268;6.534;2024-02-14T09:00:03;10.3;;;9.6;;
40527;SDS011;26230;51.268;6.534;2024-02-14T09:10:00;18.0;;;16.7;;
40527;SDS011;26230;51.268;6.534;2024-02-14T09:20:01;18.0;;;16.7;;
40527;SDS011;26230;51.268;6.534;2024-02-14T09:30:00;4.0;;;2.3;;
40527;SDS011;26230;51.268;6.534;2024-02-14T09:40:00;5.4;;;2.6;;
40527;SDS011;26230;51.268;6.534;2024-02-14T09:50:03;5.4;;;2.6;;
40527;SDS011;26230;51.268;6.534;2024-02-14T10:00:02;3.9;;;1.5;;
40527;SDS011;26230;51.268;6.534;2024-02-14T10:10:06;4.4;;;2.0;;
40527;SDS011;26230;51.268;6.534;2024-02-14T10:20:05;4.4;;;2.0;;
40527;SDS011;26230;51.268;6.534;2024-02-14T10:30:00;5.9;;;2.2;;
40527;SDS011;26230;51.268;6.534;2024-02-14T10:40:02;5.0;;;1.9;;
40527;SDS011;26230;51.268;6.534;2024-02-14T10:50:05;5.0;;;1.9;;
40527;SDS011;26230;51.268;6.534;2024-02-14T11:00:08;4.0;;;1.5;;
40527;SDS011;26230;51.268;6.534;2024-02-14T11:10:05;6.2;;;1.6;;
40527;SDS011;26230;51.268;6.534;2024-02-14T11:20:11;6.2;;;1.6;;
40527;SDS011;26230;51.268;6.534;2024-02-14T11:30:06;9.1;;;8.4;;
40527;SDS011;26230;51.268;6.534;2024-02-14T11:40:01;22.1;;;20.6;;
40527;SDS011;26230;51.268;6.534;2024-02-14T11:50:01;22.1;;;20.6;;
40527;SDS011;26230;51.268;6.534;2024-02-14T12:00:00;18.2;;;16.8;;
40527;SDS011;26230;51.268;6.534;2024-02-14T12:10:00;16.9;;;15.6;;
40527;SDS011;26230;51.268;6.534;2024-02-14T12:20:09;16.9;;;15.6;;
40527;SDS011;26230;51.268;6.534;2024-02-14T12:30:05;15.0;;;13.8;;
40527;SDS011;26230;51.268;6.534;2024-02-14T12:40:00;15.4;;;14.3;;
40527;SDS011;26230;51.268;6.534;2024-02-14T12:50:02;15.4;;;14.3;;
40527;SDS011;26230;51.268;6.534;2024-02-14T13:00:00;13.9;;;13.1;;
40527;SDS011;26230;51.268;6.534;2024-02-14T13:10:00;13.8;;;13.0;;
40527;SDS011;26230;51.268;6.534;2024-02-14T13:20:01;13.8;;;13.0;;
40527;SDS011;26230;51.268;6.534;2024-02-14T13:30:01;12.8;;;12.0;;
40527;SDS011;26230;51.268;6.534;2024-02-14T13:40:01;13.4;;;12.5;;
40527;SDS011;26230;51.268;6.534;2024-02-14T13:50:00;13.4;;;12.5;;
40527;SDS011;26230;51.268;6.534;2024-02-14T14:00:03;13.3;;;12.4;;
40527;SDS011;26230;51.268;6.534;2024-02-14T14:10:00;12.0;;;11.3;;
40527;SDS011;26230;51.268;6.534;2024-02-14T14:20:00;12.0;;;11.3;;
40527;SDS011;26230;51.268;6.534;2024-02-14T14:30:00;10.9;;;10.3;;
40527;SDS011;26230;51.268;6.534;2024-02-14T14:40:02;11.7;;;11.0;;
40527;SDS011;26230;51.268;6.534;2024-02-14T14:50:00;11.7;;;11.0;;
40527;SDS011;26230;51.268;6.534;2024-02-14T15:00:02;11.6;;;10.9;;
40527;SDS011;26230;51.268;6.534;2024-02-14T15:10:00;13.4;;;12.6;;
40527;SDS011;26230;51.268;6.534;2024-02-14T15:20:02;13.4;;;12.6;;
40527;SDS011;26230;51.268;6.534;2024-02-14T15:30:11;25.4;;;23.9;;
40527;SDS011;26230;51.268;6.534;2024-02-14T15:40:00;22.8;;;21.4;;
40527;SDS011;26230;51.268;6.534;2024-02-14T15:50:00;22.8;;;21.4;;
40527;SDS011;26230;51.268;6.534;2024-02-14T16:00:02;18.2;;;17.1;;
40527;SDS011;26230;51.268;6.534;2024-02-14T16:10:00;23.1;;;21.6;;
40527;SDS011;26230;51.268;6.534;2024-02-14T16:20:00;23.1;;;21.6;;
40527;SDS011;26230;51.268;6.534;2024-02-14T16:30:01;20.9;;;19.6;;
40527;SDS011;26230;51.268;6.534;2024-02-14T16:40:05;17.3;;;16.3;;
40527;SDS011;26230;51.268;6.534;2024-02-14T16:50:00;17.3;;;16.3;;
40527;SDS011;26230;51.268;6.534;2024-02-14T17:00:00;14.4;;;13.6;;
40527;SDS011;26230;51.268;6.534;2024-02-14T17:10:01;30.7;;;28.8;;
40527;SDS011;26230;51.268;6.534;2024-02-14T17:20:00;30.7;;;28.8;;
40527;SDS011;26230;51.268;6.534;2024-02-14T17:30:00;31.6;;;29.7;;
40527;SDS011;26230;51.268;6.534;2024-02-14T17:40:00;2.5;;;1.5;;
40527;SDS011;26230;51.268;6.534;2024-02-14T17:50:02;2.5;;;1.5;;
40527;SDS011;26230;51.268;6.534;2024-02-14T18:00:01;2.8;;;1.4;;
40527;SDS011;26230;51.268;6.534;2024-02-14T18:10:00;3.2;;;1.6;;
40527;SDS011;26230;51.268;6.534;2024-02-14T18:20:01;3.2;;;1.6;;
40527;SDS011;26230;51.268;6.534;2024-02-14T18:30:00;2.4;;;2.2;;
40527;SDS011;26230;51.268;6.534;2024-02-14T18:40:00;5.4;;;4.9;;
40527;SDS011;26230;51.268;6.534;2024-02-14T18:50:02;5.4;;;4.9;;
40527;SDS011;26230;51.268;6.534;2024-02-14T19:00:09;4.2;;;3.3;;
40527;SDS011;26230;51.268;6.534;2024-02-14T19:10:00;3.1;;;2.3;;
40527;SDS011;26230;51.268;6.534;2024-02-14T19:20:06;3.1;;;2.3;;
40527;SDS011;26230;51.268;6.534;2024-02-14T19:30:01;3.2;;;2.9;;
40527;SDS011;26230;51.268;6.534;2024-02-14T19:40:00;3.4;;;3.1;;
40527;SDS011;26230;51.268;6.534;2024-02-14T19:50:07;3.4;;;3.1;;
40527;SDS011;26230;51.268;6.534;2024-02-14T20:00:01;6.3;;;3.9;;
40527;SDS011;26230;51.268;6.534;2024-02-14T20:10:01;7.0;;;4.7;;
40527;SDS011;26230;51.268;6.534;2024-02-14T20:20:01;7.0;;;4.7;;
40527;SDS011;26230;51.268;6.534;2024-02-14T20:30:07;6.5;;;5.9;;
40527;SDS011;26230;51.268;6.534;2024-02-14T20:40:00;6.7;;;5.1;;
40527;SDS011;26230;51.268;6.534;2024-02-14T20:50:02;6.7;;;5.1;;
40527;SDS011;26230;51.268;6.534;2024-02-14T21:00:02;6.8;;;3.7;;
40527;SDS011;26230;51.268;6.534;2024-02-14T21:10:02;6.9;;;3.5;;
40527;SDS011;26230;51.268;6.534;2024-02-14T21:20:03;6.9;;;3.5;;
40527;SDS011;26230;51.268;6.534;2024-02-14T21:30:02;8.8;;;7.7;;
40527;SDS011;26230;51.268;6.534;2024-02-14T21:40:00;8.4;;;5.3;;
40527;SDS011;26230;51.268;6.534;2024-02-14T21:50:00;8.4;;;5.3;;
40527;SDS011;26230;51.268;6.534;2024-02-14T22:00:01;8.9;;;6.3;;
40527;SDS011;26230;51.268;6.534;2024-02-14T22:10:01;8.6;;;6.4;;
40527;SDS011;26230;51.268;6.534;2024-02-14T22:20:00;8.6;;;6.4;;
40527;SDS011;26230;51.268;6.534;2024-02-14T22:30:05;11.4;;;6.0;;
40527;SDS011;26230;51.268;6.534;2024-02-14T22:40:02;12.4;;;10.0;;
40527;SDS011;26230;51.268;6.534;2024-02-14T22:50:00;12.4;;;10.0;;
40527;SDS011;26230;51.268;6.534;2024-02-14T23:00:05;11.3;;;9.1;;
40527;SDS011;26230;51.268;6.534;2024-02-14T23:10:00;10.9;;;7.3;;
40527;SDS011;26230;51.268;6.534;2024-02-14T23:20:00;10.9;;;7.3;;
40527;SDS011;26230;51.268;6.534;2024-02-14T23:30:07;14.1;;;7.7;;
40527;SDS011;26230;51.268;6.534;2024-02-14T23:40:00;10.2;;;7.7;;
40527;SDS011;26230;51.268;6.534;2024-02-14T23:50:03;10.2;;;7.7;;
